Terminal Aerodrome Forecast
Issued by NWS Green Bay, WI

Home | Current Version | Previous Version | Text Only | Print | Product List | Glossary On
Versions: 1 2 3 4 5 6 7 8 9 10 11 12 13 14 15 16 17 18 19 20 21 22 23 24 25 26 27 28 29 30 31 32 33 34 35
000
FTUS43 KGRB 211200 AAA
TAFGRB
TAF AMD
KGRB 211236Z 2113/2212 26012G17KT P6SM SCT019 OVC040
      TEMPO 2113/2115 -RASN BKN019
     FM211500 26016G24KT P6SM -SHRA SCT020 OVC035
     FM220100 30012KT P6SM BKN035 BKN070=

USA.gov is the U.S. government's official web portal to all federal, state and local government web resources and services.